sensor_id;sensor_type;location;lat;lon;timestamp;pressure;altitude;pressure_sealevel;temperature;humidity
40372;BME280;28564;53.346;-6.554;2024-02-21T00:00:46;100387.24;;;10.31;50.10
40372;BME280;28564;53.346;-6.554;2024-02-21T00:03:13;100365.66;;;10.36;50.04
40372;BME280;28564;53.346;-6.554;2024-02-21T00:05:40;100347.61;;;10.36;49.98
40372;BME280;28564;53.346;-6.554;2024-02-21T00:08:08;100331.95;;;10.09;49.83
40372;BME280;28564;53.346;-6.554;2024-02-21T00:10:35;100321.55;;;10.34;49.83
40372;BME280;28564;53.346;-6.554;2024-02-21T00:13:03;100318.18;;;10.33;49.89
40372;BME280;28564;53.346;-6.554;2024-02-21T00:15:31;100307.53;;;10.33;49.90
40372;BME280;28564;53.346;-6.554;2024-02-21T00:17:58;100299.30;;;10.35;49.86
40372;BME280;28564;53.346;-6.554;2024-02-21T00:20:25;100290.96;;;10.36;49.80
40372;BME280;28564;53.346;-6.554;2024-02-21T00:22:52;100294.05;;;10.10;49.79
40372;BME280;28564;53.346;-6.554;2024-02-21T00:25:20;100283.35;;;10.38;49.84
40372;BME280;28564;53.346;-6.554;2024-02-21T00:27:47;100277.98;;;10.40;49.81
40372;BME280;28564;53.346;-6.554;2024-02-21T00:30:14;100278.14;;;10.17;49.80
40372;BME280;28564;53.346;-6.554;2024-02-21T00:32:42;100276.48;;;10.22;49.83
40372;BME280;28564;53.346;-6.554;2024-02-21T00:35:09;100260.17;;;10.27;49.77
40372;BME280;28564;53.346;-6.554;2024-02-21T00:37:36;100248.92;;;10.59;49.75
40372;BME280;28564;53.346;-6.554;2024-02-21T00:40:04;100237.11;;;10.65;49.65
40372;BME280;28564;53.346;-6.554;2024-02-21T00:42:31;100228.62;;;10.69;49.67
40372;BME280;28564;53.346;-6.554;2024-02-21T00:44:59;100214.35;;;10.73;49.24
40372;BME280;28564;53.346;-6.554;2024-02-21T00:47:26;100205.26;;;10.52;49.10
40372;BME280;28564;53.346;-6.554;2024-02-21T00:49:53;100198.59;;;10.58;48.89
40372;BME280;28564;53.346;-6.554;2024-02-21T00:52:20;100191.28;;;10.63;48.70
40372;BME280;28564;53.346;-6.554;2024-02-21T00:54:47;100195.60;;;10.74;48.55
40372;BME280;28564;53.346;-6.554;2024-02-21T00:57:15;100193.39;;;10.61;48.50
40372;BME280;28564;53.346;-6.554;2024-02-21T00:59:42;100180.27;;;10.91;48.19
40372;BME280;28564;53.346;-6.554;2024-02-21T01:02:09;100173.89;;;11.03;48.41
40372;BME280;28564;53.346;-6.554;2024-02-21T01:04:36;100160.95;;;10.96;48.20
40372;BME280;28564;53.346;-6.554;2024-02-21T01:07:04;100157.00;;;11.06;48.26
40372;BME280;28564;53.346;-6.554;2024-02-21T01:09:31;100146.77;;;11.19;48.30
40372;BME280;28564;53.346;-6.554;2024-02-21T01:11:58;100141.01;;;11.32;48.23
40372;BME280;28564;53.346;-6.554;2024-02-21T01:14:25;100132.08;;;11.50;47.97
40372;BME280;28564;53.346;-6.554;2024-02-21T01:16:52;100123.21;;;11.62;48.00
40372;BME280;28564;53.346;-6.554;2024-02-21T01:19:19;100113.81;;;11.80;48.11
40372;BME280;28564;53.346;-6.554;2024-02-21T01:21:47;100112.50;;;11.72;48.13
40372;BME280;28564;53.346;-6.554;2024-02-21T01:24:14;100104.36;;;12.06;48.09
40372;BME280;28564;53.346;-6.554;2024-02-21T01:26:41;100090.95;;;11.95;48.05
40372;BME280;28564;53.346;-6.554;2024-02-21T01:29:08;100077.17;;;12.27;48.03
40372;BME280;28564;53.346;-6.554;2024-02-21T01:31:35;100064.80;;;11.87;48.01
40372;BME280;28564;53.346;-6.554;2024-02-21T01:34:02;100057.71;;;11.92;47.81
40372;BME280;28564;53.346;-6.554;2024-02-21T01:36:30;100052.92;;;12.41;47.85
40372;BME280;28564;53.346;-6.554;2024-02-21T01:38:57;100048.71;;;11.98;47.94
40372;BME280;28564;53.346;-6.554;2024-02-21T01:41:24;100037.96;;;12.30;48.04
40372;BME280;28564;53.346;-6.554;2024-02-21T01:43:51;100017.03;;;12.37;47.96
40372;BME280;28564;53.346;-6.554;2024-02-21T01:46:18;100004.26;;;12.15;47.93
40372;BME280;28564;53.346;-6.554;2024-02-21T01:48:46;99993.71;;;12.21;47.97
40372;BME280;28564;53.346;-6.554;2024-02-21T01:51:12;99978.51;;;12.23;47.84
40372;BME280;28564;53.346;-6.554;2024-02-21T01:53:43;99964.97;;;12.22;47.94
40372;BME280;28564;53.346;-6.554;2024-02-21T01:56:10;99949.58;;;12.21;47.86
40372;BME280;28564;53.346;-6.554;2024-02-21T01:58:40;99937.68;;;12.19;48.12
40372;BME280;28564;53.346;-6.554;2024-02-21T02:01:09;99929.49;;;12.17;48.54
40372;BME280;28564;53.346;-6.554;2024-02-21T02:03:37;99913.11;;;12.24;48.76
40372;BME280;28564;53.346;-6.554;2024-02-21T02:06:05;99900.50;;;12.33;49.03
40372;BME280;28564;53.346;-6.554;2024-02-21T02:08:34;99889.80;;;12.42;49.32
40372;BME280;28564;53.346;-6.554;2024-02-21T02:11:01;99876.83;;;12.47;49.66
40372;BME280;28564;53.346;-6.554;2024-02-21T02:13:29;99880.15;;;12.58;50.22
40372;BME280;28564;53.346;-6.554;2024-02-21T02:15:56;99866.44;;;12.63;50.36
40372;BME280;28564;53.346;-6.554;2024-02-21T02:18:23;99848.05;;;12.52;50.33
40372;BME280;28564;53.346;-6.554;2024-02-21T02:20:51;99840.55;;;12.78;51.09
40372;BME280;28564;53.346;-6.554;2024-02-21T02:23:21;99840.17;;;12.84;51.07
40372;BME280;28564;53.346;-6.554;2024-02-21T02:25:49;99833.19;;;12.81;51.27
40372;BME280;28564;53.346;-6.554;2024-02-21T02:28:16;99819.85;;;12.79;51.63
40372;BME280;28564;53.346;-6.554;2024-02-21T02:30:44;99806.91;;;12.78;51.62
40372;BME280;28564;53.346;-6.554;2024-02-21T02:33:12;99800.11;;;12.73;52.14
40372;BME280;28564;53.346;-6.554;2024-02-21T02:35:39;99790.39;;;12.74;52.09
40372;BME280;28564;53.346;-6.554;2024-02-21T02:38:06;99775.17;;;12.75;52.42
40372;BME280;28564;53.346;-6.554;2024-02-21T02:40:34;99758.55;;;12.69;52.86
40372;BME280;28564;53.346;-6.554;2024-02-21T02:43:01;99748.65;;;12.67;52.89
40372;BME280;28564;53.346;-6.554;2024-02-21T02:45:29;99737.72;;;12.65;52.98
40372;BME280;28564;53.346;-6.554;2024-02-21T02:47:56;99721.17;;;12.65;53.09
40372;BME280;28564;53.346;-6.554;2024-02-21T02:50:23;99704.56;;;12.63;53.25
40372;BME280;28564;53.346;-6.554;2024-02-21T02:52:50;99696.91;;;12.64;53.18
40372;BME280;28564;53.346;-6.554;2024-02-21T02:55:18;99688.70;;;12.71;53.38
40372;BME280;28564;53.346;-6.554;2024-02-21T02:57:45;99669.39;;;12.45;53.66
40372;BME280;28564;53.346;-6.554;2024-02-21T03:00:13;99647.02;;;12.71;53.35
40372;BME280;28564;53.346;-6.554;2024-02-21T03:02:42;99638.68;;;12.68;53.53
40372;BME280;28564;53.346;-6.554;2024-02-21T03:05:14;99636.48;;;12.71;53.55
40372;BME280;28564;53.346;-6.554;2024-02-21T03:07:42;99627.10;;;12.74;53.34
40372;BME280;28564;53.346;-6.554;2024-02-21T03:10:10;99612.41;;;12.74;53.45
40372;BME280;28564;53.346;-6.554;2024-02-21T03:12:37;99605.79;;;12.75;53.53
40372;BME280;28564;53.346;-6.554;2024-02-21T03:15:05;99598.87;;;12.75;53.54
40372;BME280;28564;53.346;-6.554;2024-02-21T03:17:33;99590.23;;;12.77;53.51
40372;BME280;28564;53.346;-6.554;2024-02-21T03:20:00;99577.15;;;12.77;53.59
40372;BME280;28564;53.346;-6.554;2024-02-21T03:22:28;99557.69;;;12.81;53.34
40372;BME280;28564;53.346;-6.554;2024-02-21T03:24:55;99544.48;;;12.78;53.71
40372;BME280;28564;53.346;-6.554;2024-02-21T03:27:22;99531.79;;;12.62;53.41
40372;BME280;28564;53.346;-6.554;2024-02-21T03:29:50;99511.56;;;12.85;53.52
40372;BME280;28564;53.346;-6.554;2024-02-21T03:32:17;99513.01;;;12.83;53.66
40372;BME280;28564;53.346;-6.554;2024-02-21T03:34:44;99494.62;;;12.79;54.03
40372;BME280;28564;53.346;-6.554;2024-02-21T03:37:11;99476.32;;;12.79;53.92
40372;BME280;28564;53.346;-6.554;2024-02-21T03:39:38;99471.30;;;12.78;53.88
40372;BME280;28564;53.346;-6.554;2024-02-21T03:42:06;99471.83;;;12.80;53.82
40372;BME280;28564;53.346;-6.554;2024-02-21T03:44:38;99458.11;;;12.76;54.04
40372;BME280;28564;53.346;-6.554;2024-02-21T03:47:05;99444.82;;;12.57;54.15
40372;BME280;28564;53.346;-6.554;2024-02-21T03:49:32;99415.89;;;12.82;54.15
40372;BME280;28564;53.346;-6.554;2024-02-21T03:51:59;99410.75;;;12.77;54.59
40372;BME280;28564;53.346;-6.554;2024-02-21T03:54:26;99395.81;;;12.82;54.42
40372;BME280;28564;53.346;-6.554;2024-02-21T03:56:54;99372.40;;;12.78;54.67
40372;BME280;28564;53.346;-6.554;2024-02-21T03:59:21;99358.45;;;12.82;54.44
40372;BME280;28564;53.346;-6.554;2024-02-21T04:01:51;99355.30;;;12.78;54.75
40372;BME280;28564;53.346;-6.554;2024-02-21T04:04:19;99343.76;;;12.79;54.87
40372;BME280;28564;53.346;-6.554;2024-02-21T04:06:47;99333.34;;;12.77;55.03
40372;BME280;28564;53.346;-6.554;2024-02-21T04:09:15;99326.05;;;12.79;55.06
40372;BME280;28564;53.346;-6.554;2024-02-21T04:11:43;99315.27;;;12.55;55.31
40372;BME280;28564;53.346;-6.554;2024-02-21T04:14:10;99298.67;;;12.82;55.26
40372;BME280;28564;53.346;-6.554;2024-02-21T04:16:37;99291.87;;;12.81;55.49
40372;BME280;28564;53.346;-6.554;2024-02-21T04:19:04;99290.89;;;12.83;55.67
40372;BME280;28564;53.346;-6.554;2024-02-21T04:21:31;99277.01;;;12.88;55.67
40372;BME280;28564;53.346;-6.554;2024-02-21T04:23:59;99262.86;;;12.97;55.35
40372;BME280;28564;53.346;-6.554;2024-02-21T04:26:26;99253.31;;;12.90;55.85
40372;BME280;28564;53.346;-6.554;2024-02-21T04:28:53;99246.97;;;12.96;55.80
40372;BME280;28564;53.346;-6.554;2024-02-21T04:31:20;99238.25;;;12.95;55.97
40372;BME280;28564;53.346;-6.554;2024-02-21T04:33:47;99228.27;;;12.96;56.03
40372;BME280;28564;53.346;-6.554;2024-02-21T04:36:14;99217.70;;;12.93;56.28
40372;BME280;28564;53.346;-6.554;2024-02-21T04:38:41;99208.00;;;12.98;56.08
40372;BME280;28564;53.346;-6.554;2024-02-21T04:41:09;99197.48;;;12.95;56.27
40372;BME280;28564;53.346;-6.554;2024-02-21T04:43:36;99185.48;;;12.98;56.26
40372;BME280;28564;53.346;-6.554;2024-02-21T04:46:04;99176.36;;;12.99;56.30
40372;BME280;28564;53.346;-6.554;2024-02-21T04:48:31;99158.37;;;12.98;56.39
40372;BME280;28564;53.346;-6.554;2024-02-21T04:50:58;99148.72;;;13.02;56.49
40372;BME280;28564;53.346;-6.554;2024-02-21T04:53:25;99138.73;;;13.05;56.63
40372;BME280;28564;53.346;-6.554;2024-02-21T04:55:52;99127.90;;;13.08;56.89
40372;BME280;28564;53.346;-6.554;2024-02-21T04:58:19;99108.98;;;13.16;56.68
40372;BME280;28564;53.346;-6.554;2024-02-21T05:00:46;99100.23;;;13.16;56.97
40372;BME280;28564;53.346;-6.554;2024-02-21T05:03:14;99090.15;;;13.24;56.75
40372;BME280;28564;53.346;-6.554;2024-02-21T05:05:41;99075.02;;;13.11;56.79
40372;BME280;28564;53.346;-6.554;2024-02-21T05:08:09;99075.66;;;13.18;56.72
40372;BME280;28564;53.346;-6.554;2024-02-21T05:10:37;99068.38;;;13.25;56.72
40372;BME280;28564;53.346;-6.554;2024-02-21T05:13:04;99054.56;;;13.30;56.68
40372;BME280;28564;53.346;-6.554;2024-02-21T05:15:31;99046.79;;;13.48;56.85
40372;BME280;28564;53.346;-6.554;2024-02-21T05:17:58;99033.78;;;13.40;57.18
40372;BME280;28564;53.346;-6.554;2024-02-21T05:20:26;99021.15;;;13.23;57.28
40372;BME280;28564;53.346;-6.554;2024-02-21T05:22:53;99021.74;;;13.24;57.26
40372;BME280;28564;53.346;-6.554;2024-02-21T05:25:20;99012.67;;;13.50;57.13
40372;BME280;28564;53.346;-6.554;2024-02-21T05:27:47;99002.91;;;13.49;57.27
40372;BME280;28564;53.346;-6.554;2024-02-21T05:30:17;98990.51;;;13.48;57.38
40372;BME280;28564;53.346;-6.554;2024-02-21T05:32:44;98984.44;;;13.49;57.64
40372;BME280;28564;53.346;-6.554;2024-02-21T05:35:11;98982.85;;;13.54;57.48
40372;BME280;28564;53.346;-6.554;2024-02-21T05:37:39;98968.59;;;13.57;57.46
40372;BME280;28564;53.346;-6.554;2024-02-21T05:40:07;98948.20;;;13.58;57.68
40372;BME280;28564;53.346;-6.554;2024-02-21T05:42:34;98935.75;;;13.36;57.70
40372;BME280;28564;53.346;-6.554;2024-02-21T05:45:01;98926.13;;;13.41;57.61
40372;BME280;28564;53.346;-6.554;2024-02-21T05:47:28;98919.40;;;13.45;57.43
40372;BME280;28564;53.346;-6.554;2024-02-21T05:49:55;98893.43;;;13.46;57.62
40372;BME280;28564;53.346;-6.554;2024-02-21T05:52:23;98882.92;;;13.74;57.52
40372;BME280;28564;53.346;-6.554;2024-02-21T05:54:50;98875.93;;;13.50;57.73
40372;BME280;28564;53.346;-6.554;2024-02-21T05:57:18;98871.66;;;13.31;57.87
40372;BME280;28564;53.346;-6.554;2024-02-21T05:59:45;98865.64;;;13.82;57.68
40372;BME280;28564;53.346;-6.554;2024-02-21T06:02:12;98851.19;;;13.55;57.92
40372;BME280;28564;53.346;-6.554;2024-02-21T06:04:40;98825.30;;;13.83;57.89
40372;BME280;28564;53.346;-6.554;2024-02-21T06:07:07;98814.20;;;13.64;57.84
40372;BME280;28564;53.346;-6.554;2024-02-21T06:09:34;98815.72;;;13.93;57.60
40372;BME280;28564;53.346;-6.554;2024-02-21T06:12:02;98805.96;;;13.72;57.78
40372;BME280;28564;53.346;-6.554;2024-02-21T06:14:30;98799.54;;;13.52;57.77
40372;BME280;28564;53.346;-6.554;2024-02-21T06:16:57;98785.01;;;13.75;57.81
40372;BME280;28564;53.346;-6.554;2024-02-21T06:19:24;98776.37;;;13.77;57.69
40372;BME280;28564;53.346;-6.554;2024-02-21T06:21:51;98764.63;;;14.00;57.72
40372;BME280;28564;53.346;-6.554;2024-02-21T06:24:18;98752.40;;;13.99;57.96
40372;BME280;28564;53.346;-6.554;2024-02-21T06:26:46;98736.65;;;13.55;57.96
40372;BME280;28564;53.346;-6.554;2024-02-21T06:29:14;98729.96;;;14.04;57.75
40372;BME280;28564;53.346;-6.554;2024-02-21T06:31:41;98713.92;;;13.81;57.73
40372;BME280;28564;53.346;-6.554;2024-02-21T06:34:08;98716.47;;;13.82;57.77
40372;BME280;28564;53.346;-6.554;2024-02-21T06:36:35;98723.93;;;13.82;57.74
40372;BME280;28564;53.346;-6.554;2024-02-21T06:39:02;98714.58;;;13.67;57.53
40372;BME280;28564;53.346;-6.554;2024-02-21T06:41:29;98698.41;;;13.67;57.51
40372;BME280;28564;53.346;-6.554;2024-02-21T06:43:56;98692.72;;;14.04;57.11
40372;BME280;28564;53.346;-6.554;2024-02-21T06:46:24;98685.33;;;14.06;57.14
40372;BME280;28564;53.346;-6.554;2024-02-21T06:48:51;98676.27;;;13.88;57.02
40372;BME280;28564;53.346;-6.554;2024-02-21T06:51:18;98675.63;;;13.84;57.03
40372;BME280;28564;53.346;-6.554;2024-02-21T06:53:46;98661.26;;;13.88;57.00
40372;BME280;28564;53.346;-6.554;2024-02-21T06:56:14;98657.37;;;13.89;56.81
40372;BME280;28564;53.346;-6.554;2024-02-21T06:58:41;98654.50;;;13.91;56.85
40372;BME280;28564;53.346;-6.554;2024-02-21T07:01:10;98643.91;;;14.14;56.90
40372;BME280;28564;53.346;-6.554;2024-02-21T07:03:37;98634.79;;;13.99;56.83
40372;BME280;28564;53.346;-6.554;2024-02-21T07:06:05;98619.95;;;14.02;56.96
40372;BME280;28564;53.346;-6.554;2024-02-21T07:08:32;98610.41;;;14.03;56.72
40372;BME280;28564;53.346;-6.554;2024-02-21T07:11:00;98623.21;;;14.12;56.49
40372;BME280;28564;53.346;-6.554;2024-02-21T07:13:27;98599.61;;;14.09;56.85
40372;BME280;28564;53.346;-6.554;2024-02-21T07:15:54;98599.85;;;14.13;56.61
40372;BME280;28564;53.346;-6.554;2024-02-21T07:18:21;98592.31;;;14.11;56.63
40372;BME280;28564;53.346;-6.554;2024-02-21T07:20:48;98585.00;;;14.15;56.52
40372;BME280;28564;53.346;-6.554;2024-02-21T07:23:15;98575.84;;;14.10;56.55
40372;BME280;28564;53.346;-6.554;2024-02-21T07:25:42;98570.89;;;14.09;56.65
40372;BME280;28564;53.346;-6.554;2024-02-21T07:28:09;98562.60;;;14.09;56.67
40372;BME280;28564;53.346;-6.554;2024-02-21T07:30:36;98560.93;;;14.07;56.69
40372;BME280;28564;53.346;-6.554;2024-02-21T07:33:04;98550.13;;;14.28;56.84
40372;BME280;28564;53.346;-6.554;2024-02-21T07:35:32;98550.44;;;14.35;56.64
40372;BME280;28564;53.346;-6.554;2024-02-21T07:37:59;98547.15;;;14.17;56.54
40372;BME280;28564;53.346;-6.554;2024-02-21T07:40:26;98528.56;;;14.37;56.51
40372;BME280;28564;53.346;-6.554;2024-02-21T07:42:58;98522.84;;;14.18;56.54
40372;BME280;28564;53.346;-6.554;2024-02-21T07:45:26;98515.27;;;13.94;56.55
40372;BME280;28564;53.346;-6.554;2024-02-21T07:47:53;98506.27;;;14.19;56.52
40372;BME280;28564;53.346;-6.554;2024-02-21T07:50:20;98502.08;;;14.13;56.67
40372;BME280;28564;53.346;-6.554;2024-02-21T07:52:47;98516.12;;;14.13;56.87
40372;BME280;28564;53.346;-6.554;2024-02-21T07:55:15;98505.68;;;14.08;57.14
40372;BME280;28564;53.346;-6.554;2024-02-21T07:57:43;98511.57;;;14.06;57.24
40372;BME280;28564;53.346;-6.554;2024-02-21T08:00:10;98510.92;;;14.06;57.20
40372;BME280;28564;53.346;-6.554;2024-02-21T08:02:37;98511.64;;;14.05;57.36
40372;BME280;28564;53.346;-6.554;2024-02-21T08:05:05;98500.77;;;14.06;57.37
40372;BME280;28564;53.346;-6.554;2024-02-21T08:07:33;98493.80;;;14.14;57.30
40372;BME280;28564;53.346;-6.554;2024-02-21T08:10:00;98485.95;;;14.22;57.22
40372;BME280;28564;53.346;-6.554;2024-02-21T08:12:27;98484.25;;;14.28;57.04
40372;BME280;28564;53.346;-6.554;2024-02-21T08:14:54;98477.12;;;14.34;56.94
40372;BME280;28564;53.346;-6.554;2024-02-21T08:17:21;98468.36;;;14.35;56.96
40372;BME280;28564;53.346;-6.554;2024-02-21T08:19:48;98460.60;;;14.43;56.95
40372;BME280;28564;53.346;-6.554;2024-02-21T08:22:15;98460.76;;;14.42;56.85
40372;BME280;28564;53.346;-6.554;2024-02-21T08:24:42;98456.16;;;14.47;56.70
40372;BME280;28564;53.346;-6.554;2024-02-21T08:27:09;98456.66;;;14.79;56.66
40372;BME280;28564;53.346;-6.554;2024-02-21T08:29:37;98464.42;;;14.61;56.61
40372;BME280;28564;53.346;-6.554;2024-02-21T08:32:04;98451.16;;;14.20;56.50
40372;BME280;28564;53.346;-6.554;2024-02-21T08:34:31;98428.15;;;14.45;56.25
40372;BME280;28564;53.346;-6.554;2024-02-21T08:36:59;98429.82;;;14.54;56.30
40372;BME280;28564;53.346;-6.554;2024-02-21T08:39:26;98435.99;;;14.59;56.24
40372;BME280;28564;53.346;-6.554;2024-02-21T08:41:53;98434.60;;;14.65;56.19
40372;BME280;28564;53.346;-6.554;2024-02-21T08:44:21;98427.38;;;14.72;56.02
40372;BME280;28564;53.346;-6.554;2024-02-21T08:46:49;98420.61;;;14.79;55.86
40372;BME280;28564;53.346;-6.554;2024-02-21T08:49:16;98423.95;;;14.92;55.63
40372;BME280;28564;53.346;-6.554;2024-02-21T08:51:43;98431.95;;;14.82;55.52
40372;BME280;28564;53.346;-6.554;2024-02-21T08:54:15;98420.95;;;14.92;55.34
40372;BME280;28564;53.346;-6.554;2024-02-21T08:56:42;98412.69;;;14.98;55.23
40372;BME280;28564;53.346;-6.554;2024-02-21T08:59:09;98407.21;;;15.32;55.00
40372;BME280;28564;53.346;-6.554;2024-02-21T09:01:36;98398.25;;;15.21;54.91
40372;BME280;28564;53.346;-6.554;2024-02-21T09:04:04;98400.48;;;15.25;54.94
40372;BME280;28564;53.346;-6.554;2024-02-21T09:06:31;98408.70;;;15.32;54.69
40372;BME280;28564;53.346;-6.554;2024-02-21T09:08:58;98406.39;;;15.37;54.57
40372;BME280;28564;53.346;-6.554;2024-02-21T09:11:25;98409.34;;;15.10;54.57
40372;BME280;28564;53.346;-6.554;2024-02-21T09:13:53;98411.80;;;15.40;54.48
40372;BME280;28564;53.346;-6.554;2024-02-21T09:16:20;98420.05;;;15.39;54.55
40372;BME280;28564;53.346;-6.554;2024-02-21T09:18:47;98425.11;;;15.43;54.62
40372;BME280;28564;53.346;-6.554;2024-02-21T09:21:15;98432.70;;;15.15;54.66
40372;BME280;28564;53.346;-6.554;2024-02-21T09:23:42;98433.80;;;15.47;54.65
40372;BME280;28564;53.346;-6.554;2024-02-21T09:26:09;98437.52;;;15.51;54.59
40372;BME280;28564;53.346;-6.554;2024-02-21T09:28:37;98438.00;;;15.58;54.60
40372;BME280;28564;53.346;-6.554;2024-02-21T09:31:04;98431.47;;;15.68;54.60
40372;BME280;28564;53.346;-6.554;2024-02-21T09:33:31;98437.12;;;15.72;54.60
40372;BME280;28564;53.346;-6.554;2024-02-21T09:35:58;98433.35;;;15.82;54.57
40372;BME280;28564;53.346;-6.554;2024-02-21T09:38:25;98432.62;;;15.97;54.24
40372;BME280;28564;53.346;-6.554;2024-02-21T09:40:57;98433.55;;;15.82;54.11
40372;BME280;28564;53.346;-6.554;2024-02-21T09:43:26;98437.09;;;15.95;54.15
40372;BME280;28564;53.346;-6.554;2024-02-21T09:45:55;98438.37;;;15.93;54.32
40372;BME280;28564;53.346;-6.554;2024-02-21T09:48:33;98432.71;;;15.71;54.89
40372;BME280;28564;53.346;-6.554;2024-02-21T09:51:07;98431.62;;;15.97;54.89
40372;BME280;28564;53.346;-6.554;2024-02-21T09:53:37;98434.29;;;15.98;54.84
40372;BME280;28564;53.346;-6.554;2024-02-21T09:56:08;98436.49;;;15.96;55.10
40372;BME280;28564;53.346;-6.554;2024-02-21T09:58:35;98428.91;;;16.01;55.36
40372;BME280;28564;53.346;-6.554;2024-02-21T10:03:54;98437.62;;;16.08;54.54
40372;BME280;28564;53.346;-6.554;2024-02-21T10:06:21;98437.46;;;16.20;54.76
40372;BME280;28564;53.346;-6.554;2024-02-21T10:08:52;98447.50;;;16.10;55.08
40372;BME280;28564;53.346;-6.554;2024-02-21T10:11:22;98445.21;;;16.23;54.97
40372;BME280;28564;53.346;-6.554;2024-02-21T10:13:50;98456.58;;;16.11;55.58
40372;BME280;28564;53.346;-6.554;2024-02-21T10:16:17;98444.34;;;16.28;55.68
40372;BME280;28564;53.346;-6.554;2024-02-21T10:18:54;98449.99;;;16.04;55.82
40372;BME280;28564;53.346;-6.554;2024-02-21T10:21:23;98447.04;;;16.16;55.67
40372;BME280;28564;53.346;-6.554;2024-02-21T10:23:51;98463.47;;;16.01;55.67
40372;BME280;28564;53.346;-6.554;2024-02-21T10:26:19;98455.08;;;16.05;55.51
40372;BME280;28564;53.346;-6.554;2024-02-21T10:28:47;98471.31;;;16.04;55.68
40372;BME280;28564;53.346;-6.554;2024-02-21T10:31:22;98487.26;;;16.00;55.90
40372;BME280;28564;53.346;-6.554;2024-02-21T10:33:54;98489.79;;;16.04;55.90
40372;BME280;28564;53.346;-6.554;2024-02-21T10:36:23;98491.59;;;16.30;55.94
40372;BME280;28564;53.346;-6.554;2024-02-21T10:38:50;98527.88;;;16.11;55.31
40372;BME280;28564;53.346;-6.554;2024-02-21T10:41:20;98502.22;;;16.37;55.13
40372;BME280;28564;53.346;-6.554;2024-02-21T10:43:50;98549.53;;;16.09;54.96
40372;BME280;28564;53.346;-6.554;2024-02-21T10:46:20;98530.63;;;16.31;54.48
40372;BME280;28564;53.346;-6.554;2024-02-21T10:48:59;98523.66;;;16.55;54.51
40372;BME280;28564;53.346;-6.554;2024-02-21T10:51:33;98528.68;;;16.01;54.73
40372;BME280;28564;53.346;-6.554;2024-02-21T10:54:09;98530.44;;;16.10;53.85
40372;BME280;28564;53.346;-6.554;2024-02-21T10:56:40;98559.30;;;16.25;53.62
40372;BME280;28564;53.346;-6.554;2024-02-21T10:59:08;98556.43;;;16.10;54.14
40372;BME280;28564;53.346;-6.554;2024-02-21T11:01:36;98577.74;;;16.01;54.39
40372;BME280;28564;53.346;-6.554;2024-02-21T11:04:05;98578.74;;;16.01;54.75
40372;BME280;28564;53.346;-6.554;2024-02-21T11:06:34;98584.94;;;15.89;54.26
40372;BME280;28564;53.346;-6.554;2024-02-21T11:09:04;98579.88;;;15.86;53.76
40372;BME280;28564;53.346;-6.554;2024-02-21T11:11:33;98605.30;;;15.99;53.68
40372;BME280;28564;53.346;-6.554;2024-02-21T11:14:05;98621.41;;;15.53;54.33
40372;BME280;28564;53.346;-6.554;2024-02-21T11:16:36;98620.13;;;15.72;54.91
40372;BME280;28564;53.346;-6.554;2024-02-21T11:19:05;98615.83;;;15.79;55.15
40372;BME280;28564;53.346;-6.554;2024-02-21T11:21:34;98616.18;;;15.84;53.88
40372;BME280;28564;53.346;-6.554;2024-02-21T11:24:01;98627.93;;;15.75;52.05
40372;BME280;28564;53.346;-6.554;2024-02-21T11:26:29;98617.70;;;15.62;51.71
40372;BME280;28564;53.346;-6.554;2024-02-21T11:28:57;98622.61;;;15.70;50.90
40372;BME280;28564;53.346;-6.554;2024-02-21T11:31:24;98632.83;;;15.29;50.52
40372;BME280;28564;53.346;-6.554;2024-02-21T11:33:51;98648.19;;;15.28;51.00
40372;BME280;28564;53.346;-6.554;2024-02-21T11:36:24;98644.09;;;15.14;51.18
40372;BME280;28564;53.346;-6.554;2024-02-21T11:38:52;98631.96;;;14.77;50.81
40372;BME280;28564;53.346;-6.554;2024-02-21T11:41:20;98652.67;;;15.14;50.89
40372;BME280;28564;53.346;-6.554;2024-02-21T11:43:49;98640.33;;;15.17;50.75
40372;BME280;28564;53.346;-6.554;2024-02-21T11:46:16;98635.05;;;15.05;50.79
40372;BME280;28564;53.346;-6.554;2024-02-21T11:48:43;98637.70;;;15.53;50.60
40372;BME280;28564;53.346;-6.554;2024-02-21T11:51:11;98642.73;;;15.59;50.27
40372;BME280;28564;53.346;-6.554;2024-02-21T11:53:47;98630.58;;;15.81;49.22
40372;BME280;28564;53.346;-6.554;2024-02-21T11:56:14;98668.52;;;16.47;48.32
40372;BME280;28564;53.346;-6.554;2024-02-21T11:58:41;98671.18;;;16.45;47.65
40372;BME280;28564;53.346;-6.554;2024-02-21T12:01:09;98671.45;;;16.25;47.38
40372;BME280;28564;53.346;-6.554;2024-02-21T12:03:36;98672.04;;;16.49;47.47
40372;BME280;28564;53.346;-6.554;2024-02-21T12:06:06;98678.53;;;16.46;46.75
40372;BME280;28564;53.346;-6.554;2024-02-21T12:08:41;98666.15;;;16.20;47.36
40372;BME280;28564;53.346;-6.554;2024-02-21T12:11:17;98685.91;;;16.35;47.38
40372;BME280;28564;53.346;-6.554;2024-02-21T12:13:45;98679.22;;;16.36;47.05
40372;BME280;28564;53.346;-6.554;2024-02-21T12:16:15;98690.05;;;16.57;46.41
40372;BME280;28564;53.346;-6.554;2024-02-21T12:18:43;98672.01;;;16.59;45.94
40372;BME280;28564;53.346;-6.554;2024-02-21T12:21:10;98696.55;;;16.50;45.70
40372;BME280;28564;53.346;-6.554;2024-02-21T12:23:38;98680.49;;;16.54;45.64
40372;BME280;28564;53.346;-6.554;2024-02-21T12:26:06;98690.07;;;17.01;45.11
40372;BME280;28564;53.346;-6.554;2024-02-21T12:28:32;98655.31;;;17.26;44.50
40372;BME280;28564;53.346;-6.554;2024-02-21T12:30:59;98668.22;;;17.18;44.19
40372;BME280;28564;53.346;-6.554;2024-02-21T12:33:26;98673.32;;;17.13;44.13
40372;BME280;28564;53.346;-6.554;2024-02-21T12:35:54;98674.09;;;17.27;43.07
40372;BME280;28564;53.346;-6.554;2024-02-21T12:38:21;98696.22;;;17.38;43.50
40372;BME280;28564;53.346;-6.554;2024-02-21T12:40:49;98674.59;;;17.32;43.38
40372;BME280;28564;53.346;-6.554;2024-02-21T12:43:16;98683.58;;;17.40;43.09
40372;BME280;28564;53.346;-6.554;2024-02-21T12:45:43;98682.51;;;17.48;42.98
40372;BME280;28564;53.346;-6.554;2024-02-21T12:48:10;98658.67;;;17.29;43.15
40372;BME280;28564;53.346;-6.554;2024-02-21T12:50:37;98661.50;;;18.10;41.67
40372;BME280;28564;53.346;-6.554;2024-02-21T12:53:04;98678.58;;;18.72;40.98